Time;durP1;ratioP1;P1;durP2;ratioP2;P2;SDS_P1;SDS_P2;PMS_P1;PMS_P2;Temp;Humidity;BMP_temperature;BMP_pressure;BME280_temperature;BME280_humidity;BME280_pressure;Samples;Min_cycle;Max_cycle;Signal;HPM_P1;HPM_P2
2022/07/16 00:03:11;;;;;;;3.57;2.50;;;16.80;99.90;;;;;;5267661;28;20040;-71
2022/07/16 00:05:42;;;;;;;4.22;2.08;;;16.90;99.90;;;;;;5268035;28;20020;-71
2022/07/16 00:08:13;;;;;;;3.85;2.00;;;17.20;99.90;;;;;;5268262;28;20024;-72
2022/07/16 00:10:44;;;;;;;2.85;1.50;;;17.30;99.90;;;;;;5268225;28;20476;-72
2022/07/16 00:13:15;;;;;;;5.20;1.70;;;17.10;99.90;;;;;;5268118;28;20085;-72
2022/07/16 00:15:46;;;;;;;3.22;1.77;;;17.00;99.90;;;;;;5268069;28;20063;-73
2022/07/16 00:21:06;;;;;;;2.95;1.40;;;16.80;99.90;;;;;;5268500;28;20035;-71
2022/07/16 00:23:36;;;;;;;2.92;1.70;;;16.80;99.90;;;;;;5268176;28;20024;-72
2022/07/16 00:26:07;;;;;;;4.32;2.08;;;16.90;99.90;;;;;;5267990;28;20607;-71
2022/07/16 00:28:38;;;;;;;1.75;1.40;;;16.80;99.90;;;;;;5268154;28;20107;-71
2022/07/16 00:31:09;;;;;;;2.10;1.80;;;16.70;99.90;;;;;;5267765;28;20506;-71
2022/07/16 00:33:40;;;;;;;3.97;1.80;;;16.70;99.90;;;;;;5267644;28;20048;-72
2022/07/16 00:36:11;;;;;;;2.65;1.60;;;16.90;99.90;;;;;;5267864;28;20093;-71
2022/07/16 00:38:41;;;;;;;3.00;1.50;;;16.90;99.90;;;;;;5268010;28;20452;-71
2022/07/16 00:41:18;;;;;;;4.88;1.50;;;17.00;99.90;;;;;;5267796;28;20016;-77
2022/07/16 00:43:53;;;;;;;3.33;1.70;;;16.80;99.90;;;;;;5268167;28;20127;-72
2022/07/16 00:46:24;;;;;;;3.47;1.75;;;16.60;99.90;;;;;;5267731;28;20061;-71
2022/07/16 00:48:55;;;;;;;3.28;1.48;;;16.40;99.90;;;;;;5267838;28;20467;-72
2022/07/16 00:51:27;;;;;;;1.77;1.67;;;16.40;99.90;;;;;;5267643;28;20456;-71
2022/07/16 00:53:58;;;;;;;3.35;2.00;;;16.30;99.90;;;;;;5267465;28;20032;-71
2022/07/16 00:56:29;;;;;;;3.78;1.83;;;16.50;99.90;;;;;;5267574;28;20808;-71
2022/07/16 00:59:00;;;;;;;3.08;1.90;;;16.40;99.90;;;;;;5267692;28;20036;-71
2022/07/16 01:01:31;;;;;;;2.88;1.80;;;16.40;99.90;;;;;;5267296;28;20454;-71
2022/07/16 01:04:04;;;;;;;5.30;2.20;;;16.20;99.90;;;;;;5267634;28;20074;-72
2022/07/16 01:06:35;;;;;;;4.00;1.63;;;16.30;99.90;;;;;;5267544;28;20028;-71
2022/07/16 01:09:06;;;;;;;2.78;1.58;;;16.60;99.90;;;;;;5267684;28;20502;-72
2022/07/16 01:11:38;;;;;;;3.33;1.63;;;16.50;99.90;;;;;;5267527;28;20021;-71
2022/07/16 01:14:09;;;;;;;4.68;2.08;;;16.40;99.90;;;;;;5267512;28;20068;-72
2022/07/16 01:16:40;;;;;;;2.50;1.70;;;16.40;99.90;;;;;;5271162;28;20114;-75
2022/07/16 01:19:12;;;;;;;2.60;1.25;;;16.30;99.90;;;;;;5271405;28;20543;-71
2022/07/16 01:21:43;;;;;;;3.20;1.40;;;16.30;99.90;;;;;;5271351;28;20434;-71
2022/07/16 01:24:13;;;;;;;2.90;1.40;;;16.30;99.90;;;;;;5271235;28;20020;-71
2022/07/16 01:26:44;;;;;;;2.75;1.30;;;16.20;99.90;;;;;;5271128;28;20349;-71
2022/07/16 01:29:15;;;;;;;2.25;1.40;;;16.10;99.90;;;;;;5271091;28;20021;-73
2022/07/16 01:31:46;;;;;;;3.28;1.50;;;16.10;99.90;;;;;;5270926;28;20119;-72
2022/07/16 01:34:26;;;;;;;3.15;1.40;;;16.30;99.90;;;;;;5270824;28;20064;-72
2022/07/16 01:37:00;;;;;;;1.63;1.30;;;16.40;99.90;;;;;;5271073;28;20469;-71
2022/07/16 01:39:33;;;;;;;2.38;1.30;;;16.10;99.90;;;;;;5271061;28;20036;-71
2022/07/16 01:42:08;;;;;;;4.10;1.33;;;16.20;99.90;;;;;;5270776;28;20024;-76
2022/07/16 01:44:38;;;;;;;2.28;1.52;;;15.90;99.90;;;;;;5270920;28;20031;-71
2022/07/16 01:47:10;;;;;;;2.05;1.48;;;15.70;99.90;;;;;;5270902;28;20024;-71
2022/07/16 01:49:41;;;;;;;3.67;2.08;;;15.70;99.90;;;;;;5270788;28;20056;-72
2022/07/16 01:52:15;;;;;;;3.60;1.45;;;15.80;99.90;;;;;;5270526;28;20051;-71
2022/07/16 01:54:52;;;;;;;1.73;1.40;;;16.00;99.90;;;;;;5270470;28;20126;-72
2022/07/16 01:57:24;;;;;;;3.15;1.35;;;16.00;99.90;;;;;;5270592;28;20429;-71
2022/07/16 01:59:54;;;;;;;3.13;1.58;;;15.80;99.90;;;;;;5270282;28;20028;-72
2022/07/16 02:02:25;;;;;;;2.58;1.50;;;15.80;99.90;;;;;;5270570;28;20046;-73
2022/07/16 02:04:56;;;;;;;3.85;1.60;;;15.70;99.90;;;;;;5270298;28;20032;-72
2022/07/16 02:07:27;;;;;;;3.00;1.75;;;15.80;99.90;;;;;;5270394;28;20026;-75
2022/07/16 02:09:57;;;;;;;2.92;1.60;;;15.70;99.90;;;;;;5270363;28;20024;-71
2022/07/16 02:12:28;;;;;;;4.30;2.22;;;15.70;99.90;;;;;;5270285;28;20100;-71
2022/07/16 02:14:59;;;;;;;2.92;1.70;;;15.80;99.90;;;;;;5270088;28;20034;-71
2022/07/16 02:17:30;;;;;;;3.15;1.60;;;15.80;99.90;;;;;;5270294;28;20020;-71
2022/07/16 02:20:03;;;;;;;3.00;1.42;;;15.70;99.90;;;;;;5270162;28;20012;-71
2022/07/16 02:22:34;;;;;;;2.58;1.60;;;15.70;99.90;;;;;;5270130;28;20023;-70
2022/07/16 02:25:06;;;;;;;2.22;1.50;;;15.70;99.90;;;;;;5269928;28;20024;-72
2022/07/16 02:28:05;;;;;;;1.58;1.30;;;15.90;99.90;;;;;;5268954;28;20032;-72
2022/07/16 02:30:29;;;;;;;3.03;1.25;;;16.00;99.90;;;;;;5269686;28;20036;-71
2022/07/16 02:33:00;;;;;;;3.22;1.88;;;15.90;99.90;;;;;;5269794;28;20540;-71
2022/07/16 02:35:31;;;;;;;2.17;1.52;;;15.50;99.90;;;;;;5268539;28;20028;-72
2022/07/16 02:38:02;;;;;;;2.45;1.48;;;15.60;99.90;;;;;;5269960;28;20024;-71
2022/07/16 02:40:33;;;;;;;4.88;1.55;;;15.50;99.90;;;;;;5269743;28;20028;-72
2022/07/16 02:43:06;;;;;;;2.75;1.20;;;15.70;99.90;;;;;;5269833;28;20039;-71
2022/07/16 02:45:38;;;;;;;3.20;1.50;;;15.90;99.90;;;;;;5269679;28;20024;-72
2022/07/16 02:48:10;;;;;;;3.30;1.63;;;15.80;99.90;;;;;;5269594;28;20035;-74
2022/07/16 02:50:41;;;;;;;3.50;1.80;;;15.60;99.90;;;;;;5269456;28;20021;-71
2022/07/16 02:53:12;;;;;;;5.72;1.35;;;15.40;99.90;;;;;;5269147;28;20024;-71
2022/07/16 02:55:42;;;;;;;2.20;1.63;;;15.60;99.90;;;;;;5269423;28;20448;-71
2022/07/16 02:58:13;;;;;;;3.47;1.48;;;15.70;99.90;;;;;;5269462;28;20139;-73
2022/07/16 03:00:44;;;;;;;6.47;1.50;;;15.80;99.90;;;;;;5268958;28;20511;-71
2022/07/16 03:03:15;;;;;;;1.48;1.20;;;15.60;99.90;;;;;;5269414;28;20043;-72
2022/07/16 03:05:46;;;;;;;4.30;1.65;;;15.60;99.90;;;;;;5269247;28;20020;-71
2022/07/16 03:08:17;;;;;;;3.22;1.55;;;15.50;99.90;;;;;;5269182;28;20053;-71
2022/07/16 03:10:47;;;;;;;1.88;1.58;;;15.60;99.90;;;;;;5269013;28;20020;-72
2022/07/16 03:13:19;;;;;;;2.90;1.75;;;15.70;99.90;;;;;;5269083;28;20795;-72
2022/07/16 03:15:49;;;;;;;2.55;1.52;;;15.40;99.90;;;;;;5268999;28;20047;-71
2022/07/16 03:18:21;;;;;;;2.88;2.05;;;15.60;99.90;;;;;;5268923;28;20024;-72
2022/07/16 03:20:52;;;;;;;2.97;2.28;;;15.60;99.90;;;;;;5268952;28;20031;-72
2022/07/16 03:23:22;;;;;;;2.05;1.50;;;15.60;99.90;;;;;;5268910;28;20028;-71
2022/07/16 03:25:53;;;;;;;2.90;1.60;;;16.00;99.90;;;;;;5268707;28;20017;-72
2022/07/16 03:28:24;;;;;;;3.88;1.50;;;15.80;99.90;;;;;;5268856;28;20499;-71
2022/07/16 03:30:55;;;;;;;2.95;1.45;;;15.80;99.90;;;;;;5268669;28;20035;-71
2022/07/16 03:33:25;;;;;;;3.97;1.67;;;16.00;99.90;;;;;;5268576;28;20055;-71
2022/07/16 03:35:56;;;;;;;2.92;1.60;;;15.80;99.90;;;;;;5268695;28;20023;-71
2022/07/16 03:41:17;;;;;;;2.88;1.90;;;16.10;99.90;;;;;;5268575;28;20023;-72
2022/07/16 03:43:47;;;;;;;3.45;1.88;;;16.00;99.90;;;;;;5268736;28;20036;-72
2022/07/16 03:46:18;;;;;;;4.43;2.00;;;16.10;99.90;;;;;;5268526;28;20028;-71
2022/07/16 03:48:49;;;;;;;4.90;1.98;;;16.10;99.90;;;;;;5268561;28;20104;-78
2022/07/16 03:51:20;;;;;;;2.75;1.92;;;16.30;99.90;;;;;;5268336;28;20107;-71
2022/07/16 03:53:51;;;;;;;4.30;2.40;;;15.90;99.90;;;;;;5268398;28;20403;-71
2022/07/16 03:56:24;;;;;;;4.97;1.90;;;15.90;99.90;;;;;;5268347;28;20024;-71
2022/07/16 03:58:55;;;;;;;3.45;2.13;;;16.50;99.90;;;;;;5268310;28;20491;-71
2022/07/16 04:01:26;;;;;;;5.78;2.40;;;16.60;99.90;;;;;;5267899;28;20496;-72
2022/07/16 04:03:57;;;;;;;5.60;2.28;;;16.20;99.90;;;;;;5268288;28;20031;-71
2022/07/16 04:06:27;;;;;;;6.57;2.28;;;16.30;99.90;;;;;;5268189;28;20027;-72
2022/07/16 04:08:58;;;;;;;2.92;2.10;;;16.30;99.90;;;;;;5268211;28;20024;-71
2022/07/16 04:11:29;;;;;;;3.10;1.77;;;16.80;99.90;;;;;;5268218;28;20027;-72
2022/07/16 04:14:00;;;;;;;2.45;1.67;;;17.00;99.90;;;;;;5268036;28;20040;-79
2022/07/16 04:16:31;;;;;;;3.60;1.70;;;17.10;99.90;;;;;;5268126;28;20031;-72
2022/07/16 04:19:01;;;;;;;4.80;2.15;;;16.90;99.90;;;;;;5268044;28;20021;-78
2022/07/16 04:21:32;;;;;;;3.90;1.90;;;17.20;99.90;;;;;;5268068;28;20024;-72
2022/07/16 04:24:03;;;;;;;4.88;2.25;;;17.20;99.90;;;;;;5268074;28;20376;-72
2022/07/16 04:26:34;;;;;;;4.55;2.35;;;17.30;99.90;;;;;;5267837;28;20023;-72
2022/07/16 04:29:05;;;;;;;4.10;2.10;;;17.10;99.90;;;;;;5267973;28;20024;-72
2022/07/16 04:31:35;;;;;;;4.72;2.55;;;17.30;99.90;;;;;;5267880;28;20028;-72
2022/07/16 04:34:06;;;;;;;4.45;2.40;;;16.90;99.90;;;;;;5267860;28;20044;-72
2022/07/16 04:36:37;;;;;;;5.20;2.10;;;17.30;99.90;;;;;;5267942;28;20020;-74
2022/07/16 04:39:08;;;;;;;3.35;2.15;;;17.80;99.90;;;;;;5267748;28;20399;-72
2022/07/16 04:41:38;;;;;;;4.35;1.98;;;18.10;99.90;;;;;;5267918;28;20491;-72
2022/07/16 04:44:09;;;;;;;4.25;1.73;;;18.30;99.90;;;;;;5267890;28;20422;-72
2022/07/16 04:46:40;;;;;;;2.90;1.70;;;18.20;99.90;;;;;;5267903;28;20043;-75
2022/07/16 04:49:11;;;;;;;4.03;2.38;;;18.30;99.90;;;;;;5267787;28;20046;-72
2022/07/16 04:51:41;;;;;;;4.93;2.10;;;18.50;99.90;;;;;;5271636;28;20016;-71
2022/07/16 04:54:12;;;;;;;4.50;2.60;;;18.80;99.90;;;;;;5271782;28;20411;-75
2022/07/16 04:56:43;;;;;;;4.10;2.50;;;18.50;99.90;;;;;;5271910;28;20797;-72
2022/07/16 04:59:14;;;;;;;4.88;2.47;;;19.00;99.90;;;;;;5271746;28;20106;-77
2022/07/16 05:01:45;;;;;;;3.47;2.08;;;19.20;99.90;;;;;;5271520;28;20387;-72
2022/07/16 05:04:15;;;;;;;6.90;2.60;;;19.50;99.90;;;;;;5271724;28;20032;-73
2022/07/16 05:06:46;;;;;;;5.65;2.30;;;19.20;99.90;;;;;;5271689;28;20036;-72
2022/07/16 05:09:17;;;;;;;4.60;1.80;;;19.60;99.90;;;;;;5271544;28;20475;-72
2022/07/16 05:11:48;;;;;;;2.90;1.60;;;19.80;99.90;;;;;;5270142;28;20028;-72
2022/07/16 05:14:18;;;;;;;5.50;2.10;;;20.00;99.90;;;;;;5271426;28;20070;-71
2022/07/16 05:16:49;;;;;;;5.72;1.88;;;20.10;99.90;;;;;;5271402;28;20024;-72
2022/07/16 05:19:20;;;;;;;5.20;2.40;;;20.40;99.90;;;;;;5271508;28;20031;-72
2022/07/16 05:21:51;;;;;;;4.63;2.17;;;20.70;99.90;;;;;;5271346;28;20039;-74
2022/07/16 05:24:21;;;;;;;6.45;2.47;;;20.90;99.90;;;;;;5271179;28;20020;-72
2022/07/16 05:26:52;;;;;;;11.35;2.13;;;21.10;99.90;;;;;;5269814;28;20114;-72
2022/07/16 05:29:23;;;;;;;5.18;1.98;;;21.50;99.90;;;;;;5270025;28;20114;-72
2022/07/16 05:31:55;;;;;;;5.28;2.22;;;21.70;99.90;;;;;;5271088;28;20027;-72
2022/07/16 05:34:25;;;;;;;5.80;2.33;;;22.00;99.90;;;;;;5271102;28;20036;-73
2022/07/16 05:36:56;;;;;;;4.95;2.13;;;22.10;99.90;;;;;;5271071;28;20024;-72
2022/07/16 05:39:27;;;;;;;4.43;2.80;;;22.30;99.90;;;;;;5271046;28;20387;-72
2022/07/16 05:41:58;;;;;;;5.47;2.78;;;22.30;99.90;;;;;;5270945;28;20491;-72
2022/07/16 05:44:29;;;;;;;4.40;2.50;;;22.40;99.90;;;;;;5270783;28;20036;-76
2022/07/16 05:46:59;;;;;;;4.22;2.40;;;22.30;99.90;;;;;;5270911;28;20020;-72
2022/07/16 05:49:31;;;;;;;5.30;2.30;;;22.30;99.90;;;;;;5270803;28;20024;-72
2022/07/16 05:52:01;;;;;;;5.00;2.17;;;23.10;99.90;;;;;;5270869;28;20398;-73
2022/07/16 05:54:32;;;;;;;8.85;2.70;;;23.30;99.90;;;;;;5270553;28;20065;-73
2022/07/16 05:57:03;;;;;;;6.40;2.03;;;23.20;99.90;;;;;;5270620;28;20016;-72
2022/07/16 05:59:34;;;;;;;5.30;2.20;;;23.50;99.90;;;;;;5270478;28;20024;-72
2022/07/16 06:02:05;;;;;;;9.63;2.10;;;24.00;99.90;;;;;;5270317;28;20411;-71
2022/07/16 06:04:35;;;;;;;6.70;2.17;;;23.90;99.90;;;;;;5270462;28;20024;-72
2022/07/16 06:07:06;;;;;;;7.72;2.10;;;23.90;99.90;;;;;;5270575;28;20147;-73
2022/07/16 06:09:37;;;;;;;5.72;2.20;;;23.90;99.90;;;;;;5270297;28;20027;-72
2022/07/16 06:12:08;;;;;;;3.88;1.95;;;24.20;99.90;;;;;;5270370;28;20089;-72
2022/07/16 06:14:38;;;;;;;7.45;1.92;;;24.30;99.90;;;;;;5270165;28;20040;-72
2022/07/16 06:17:09;;;;;;;6.25;1.40;;;24.10;99.90;;;;;;5270385;28;20103;-72
2022/07/16 06:19:41;;;;;;;4.93;1.50;;;24.40;99.90;;;;;;5270317;28;20016;-72
2022/07/16 06:22:12;;;;;;;6.28;1.80;;;24.30;99.90;;;;;;5270229;28;20105;-80
2022/07/16 06:24:43;;;;;;;2.28;1.15;;;24.20;99.90;;;;;;5270111;28;20047;-72
2022/07/16 06:27:14;;;;;;;6.35;1.55;;;24.20;99.90;;;;;;5269984;28;20028;-73
2022/07/16 06:29:44;;;;;;;2.65;1.02;;;24.20;99.90;;;;;;5270054;28;20016;-72
2022/07/16 06:32:15;;;;;;;3.53;1.10;;;24.70;99.90;;;;;;5269886;28;20056;-79
2022/07/16 06:34:46;;;;;;;3.67;2.25;;;24.90;99.90;;;;;;5269797;28;20052;-72
2022/07/16 06:37:17;;;;;;;4.90;1.80;;;25.10;99.90;;;;;;5269866;28;20026;-73
2022/07/16 06:39:47;;;;;;;3.25;1.40;;;25.10;99.90;;;;;;5269773;28;20028;-72
2022/07/16 06:42:18;;;;;;;3.75;0.93;;;25.30;99.90;;;;;;5269801;28;20012;-72
2022/07/16 06:44:49;;;;;;;5.80;1.27;;;25.60;99.90;;;;;;5269858;28;20028;-80
2022/07/16 06:47:20;;;;;;;6.63;1.10;;;25.60;99.90;;;;;;5269515;28;20032;-72
2022/07/16 06:49:51;;;;;;;5.40;1.20;;;25.40;99.90;;;;;;5269768;28;20036;-71
2022/07/16 06:52:21;;;;;;;5.90;1.00;;;25.60;99.90;;;;;;5269543;28;20020;-73
2022/07/16 06:54:52;;;;;;;5.47;1.10;;;25.70;99.90;;;;;;5269476;28;20035;-79
2022/07/16 06:57:24;;;;;;;4.50;1.38;;;25.40;99.90;;;;;;5269532;28;20032;-72
2022/07/16 06:59:54;;;;;;;3.08;1.08;;;25.50;99.90;;;;;;5269117;28;20032;-72
2022/07/16 07:02:25;;;;;;;5.82;1.02;;;25.60;99.90;;;;;;5269463;28;20044;-73
2022/07/16 07:04:56;;;;;;;5.13;1.25;;;25.50;99.90;;;;;;5269334;28;20016;-73
2022/07/16 07:07:27;;;;;;;3.55;1.13;;;24.90;99.90;;;;;;5269344;28;20095;-72
2022/07/16 07:09:57;;;;;;;5.60;1.10;;;25.10;99.90;;;;;;5269374;28;20040;-72
2022/07/16 07:12:28;;;;;;;4.00;1.30;;;25.40;99.90;;;;;;5267410;28;20028;-73
2022/07/16 07:15:00;;;;;;;4.43;1.10;;;25.80;99.90;;;;;;5269061;28;20036;-73
2022/07/16 07:17:31;;;;;;;1.75;0.77;;;25.90;99.90;;;;;;5268935;28;20020;-73
2022/07/16 07:20:03;;;;;;;5.88;0.82;;;25.80;99.90;;;;;;5269019;28;20115;-72
2022/07/16 07:22:34;;;;;;;5.85;1.00;;;25.80;99.90;;;;;;5269038;28;20020;-73
2022/07/16 07:25:05;;;;;;;3.60;1.20;;;25.80;99.90;;;;;;5268902;28;20031;-72
2022/07/16 07:27:36;;;;;;;2.08;0.80;;;26.50;99.90;;;;;;5269014;28;20383;-72
2022/07/16 07:30:08;;;;;;;3.97;0.60;;;26.30;99.90;;;;;;5268734;28;20081;-76
2022/07/16 07:32:38;;;;;;;3.78;0.95;;;26.40;99.90;;;;;;5268692;28;20036;-72
2022/07/16 07:35:10;;;;;;;2.08;0.55;;;26.50;99.90;;;;;;5268775;28;20032;-72
2022/07/16 07:37:40;;;;;;;2.83;0.47;;;26.80;99.90;;;;;;5268706;28;20028;-72
2022/07/16 07:40:12;;;;;;;2.90;0.85;;;26.40;99.90;;;;;;5268721;28;20027;-75
2022/07/16 07:42:42;;;;;;;4.32;0.82;;;26.70;99.90;;;;;;5268769;28;20368;-72
2022/07/16 07:45:13;;;;;;;6.45;0.50;;;26.60;99.90;;;;;;5268782;28;20027;-72
2022/07/16 07:47:44;;;;;;;2.75;0.70;;;26.70;99.90;;;;;;5267317;28;20384;-72
2022/07/16 07:50:15;;;;;;;7.72;0.70;;;26.40;99.90;;;;;;5268583;28;20349;-79
2022/07/16 07:52:46;;;;;;;4.70;0.80;;;26.90;99.90;;;;;;5268507;28;20472;-73
2022/07/16 07:55:16;;;;;;;3.58;0.70;;;26.60;99.90;;;;;;5268325;28;20032;-73
2022/07/16 07:57:47;;;;;;;6.22;0.85;;;26.40;99.90;;;;;;5268592;28;20080;-76
2022/07/16 08:00:19;;;;;;;5.40;0.57;;;26.90;99.90;;;;;;5268095;28;20849;-73
2022/07/16 08:02:50;;;;;;;6.95;0.73;;;27.00;99.90;;;;;;5268426;28;20036;-73
2022/07/16 08:05:21;;;;;;;2.85;0.50;;;27.00;99.90;;;;;;5268314;28;20039;-73
2022/07/16 08:07:51;;;;;;;1.67;0.60;;;26.90;99.90;;;;;;5268316;28;20020;-72
2022/07/16 08:10:22;;;;;;;3.25;0.70;;;27.00;99.90;;;;;;5268229;28;20016;-72
2022/07/16 08:12:53;;;;;;;2.53;0.60;;;27.10;99.90;;;;;;5266976;28;20032;-72
2022/07/16 08:15:24;;;;;;;3.85;0.60;;;27.50;99.90;;;;;;5268178;28;20047;-76
2022/07/16 08:17:55;;;;;;;7.07;0.88;;;27.60;99.90;;;;;;5267035;28;20042;-74
2022/07/16 08:20:26;;;;;;;4.65;0.70;;;27.30;99.90;;;;;;5268114;28;20024;-79
2022/07/16 08:22:56;;;;;;;1.75;0.50;;;27.60;99.90;;;;;;5267976;28;20024;-72
2022/07/16 08:25:46;;;;;;;1.50;0.57;;;27.00;99.90;;;;;;5269887;28;20020;-74
2022/07/16 08:28:16;;;;;;;1.88;0.80;;;27.30;99.90;;;;;;5272552;28;20027;-73
2022/07/16 08:30:47;;;;;;;4.97;0.70;;;27.40;99.90;;;;;;5272292;28;20384;-73
2022/07/16 08:33:18;;;;;;;3.28;0.60;;;27.50;99.90;;;;;;5271028;28;20039;-78
2022/07/16 08:35:49;;;;;;;6.93;0.70;;;27.60;99.90;;;;;;5271075;28;20028;-74
2022/07/16 08:38:19;;;;;;;3.55;0.80;;;27.40;99.90;;;;;;5272336;28;20023;-74
2022/07/16 08:40:50;;;;;;;3.75;1.02;;;27.70;99.90;;;;;;5272265;28;20028;-73
2022/07/16 08:43:22;;;;;;;1.13;0.60;;;27.80;99.90;;;;;;5272406;28;20024;-79
2022/07/16 08:45:53;;;;;;;4.55;0.80;;;27.80;99.90;;;;;;5272332;28;20028;-80
2022/07/16 08:48:24;;;;;;;4.78;0.90;;;27.90;99.90;;;;;;5272183;28;20032;-78
2022/07/16 08:50:58;;;;;;;3.97;0.70;;;28.00;99.90;;;;;;5272255;28;20384;-73
2022/07/16 08:53:32;;;;;;;5.30;0.80;;;28.00;99.90;;;;;;5272115;28;20016;-76
2022/07/16 08:56:03;;;;;;;3.78;0.60;;;28.10;99.90;;;;;;5272110;28;20060;-75
2022/07/16 08:58:36;;;;;;;5.85;0.85;;;27.80;99.90;;;;;;5272407;28;20043;-73
2022/07/16 09:01:07;;;;;;;2.85;0.50;;;27.90;99.90;;;;;;5271738;28;20055;-72
2022/07/16 09:03:38;;;;;;;6.93;0.82;;;27.80;99.90;;;;;;5272142;28;20024;-73
2022/07/16 09:06:09;;;;;;;3.88;0.80;;;28.30;99.90;;;;;;5272194;28;20036;-72
2022/07/16 09:08:39;;;;;;;4.22;0.63;;;28.40;99.90;;;;;;5271987;28;20087;-72
2022/07/16 09:11:23;;;;;;;3.05;0.77;;;28.20;99.90;;;;;;5272110;28;20486;-80
2022/07/16 09:14:07;;;;;;;9.35;0.90;;;28.50;99.90;;;;;;5271559;28;20036;-73
2022/07/16 09:16:46;;;;;;;5.05;0.60;;;28.60;99.90;;;;;;5271726;28;20028;-79
2022/07/16 09:19:20;;;;;;;6.37;0.90;;;28.30;99.90;;;;;;5271868;28;20472;-73
2022/07/16 09:22:03;;;;;;;5.97;0.80;;;28.40;99.90;;;;;;5271857;28;20642;-72
2022/07/16 09:24:44;;;;;;;5.63;0.77;;;28.30;99.90;;;;;;5271575;28;20046;-72
2022/07/16 09:27:22;;;;;;;5.05;0.73;;;28.80;99.90;;;;;;5270467;28;20028;-72
2022/07/16 09:29:58;;;;;;;4.47;0.70;;;28.50;99.90;;;;;;5271361;28;20107;-72
2022/07/16 09:32:36;;;;;;;5.88;0.80;;;28.40;99.90;;;;;;5271430;28;20479;-72
2022/07/16 09:35:10;;;;;;;4.10;0.80;;;28.40;99.90;;;;;;5271402;28;20043;-73
2022/07/16 09:37:52;;;;;;;3.30;0.57;;;28.30;99.90;;;;;;5271100;28;20093;-72
2022/07/16 09:40:34;;;;;;;3.92;0.52;;;28.70;99.90;;;;;;5271239;28;20499;-72
2022/07/16 09:43:18;;;;;;;4.35;0.60;;;28.50;99.90;;;;;;5271134;28;20026;-73
2022/07/16 09:46:03;;;;;;;3.00;0.70;;;28.90;99.90;;;;;;5271114;28;20081;-72
2022/07/16 09:48:37;;;;;;;6.60;0.80;;;28.70;99.90;;;;;;5271235;28;20024;-73
2022/07/16 09:51:22;;;;;;;3.80;0.82;;;28.90;99.90;;;;;;5271131;28;20015;-72
2022/07/16 09:53:55;;;;;;;2.33;0.80;;;28.90;99.90;;;;;;5271106;28;20024;-72
2022/07/16 09:56:27;;;;;;;5.60;0.90;;;28.80;99.90;;;;;;5270843;28;20388;-73
2022/07/16 09:58:58;;;;;;;4.00;0.70;;;29.20;99.90;;;;;;5270737;28;20020;-73
2022/07/16 10:01:29;;;;;;;4.50;0.88;;;29.10;99.90;;;;;;5270223;28;20039;-73
2022/07/16 10:04:00;;;;;;;3.90;0.98;;;29.00;99.90;;;;;;5270958;28;20028;-72
2022/07/16 10:06:31;;;;;;;3.72;0.70;;;29.40;99.90;;;;;;5270635;28;20095;-73
2022/07/16 10:09:02;;;;;;;4.60;0.63;;;29.10;99.90;;;;;;5270783;28;20032;-72
2022/07/16 10:11:33;;;;;;;2.53;0.60;;;28.80;99.90;;;;;;5270609;28;20026;-72
2022/07/16 10:14:04;;;;;;;3.05;0.75;;;29.00;99.90;;;;;;5270484;28;20391;-73
2022/07/16 10:16:45;;;;;;;4.80;0.90;;;29.30;99.90;;;;;;5270411;28;20429;-72
2022/07/16 10:19:16;;;;;;;3.28;0.68;;;29.50;99.90;;;;;;5270649;28;20046;-72
2022/07/16 10:22:12;;;;;;;2.67;0.80;;;28.60;99.90;;;;;;5269322;28;20364;-73
2022/07/16 10:24:52;;;;;;;3.25;0.60;;;28.90;99.90;;;;;;5270274;28;20036;-72
2022/07/16 10:27:34;;;;;;;5.57;0.70;;;29.00;99.90;;;;;;5270272;28;20023;-73
2022/07/16 10:30:10;;;;;;;5.72;0.80;;;29.20;99.90;;;;;;5269868;28;20035;-73
2022/07/16 10:33:12;;;;;;;3.40;0.80;;;29.40;99.90;;;;;;5270159;28;20039;-73
2022/07/16 10:35:47;;;;;;;9.38;0.80;;;29.50;99.90;;;;;;5270189;28;20060;-72
2022/07/16 10:38:20;;;;;;;3.05;0.77;;;28.60;99.90;;;;;;5270271;28;20430;-72
2022/07/16 10:41:10;;;;;;;4.22;0.80;;;29.10;99.90;;;;;;5270062;28;20456;-72
2022/07/16 10:43:41;;;;;;;2.55;0.80;;;28.80;99.90;;;;;;5269941;28;20032;-72
2022/07/16 10:46:24;;;;;;;5.57;0.90;;;29.00;99.90;;;;;;5269717;28;20016;-72
2022/07/16 10:48:58;;;;;;;6.72;0.90;;;29.70;99.90;;;;;;5269098;28;20035;-73
2022/07/16 10:51:29;;;;;;;3.60;0.80;;;29.50;99.90;;;;;;5269974;28;20466;-73
2022/07/16 10:54:02;;;;;;;7.22;0.80;;;29.40;99.90;;;;;;5269589;28;20114;-73
2022/07/16 10:56:35;;;;;;;5.28;0.90;;;29.30;99.90;;;;;;5269443;28;20024;-77
2022/07/16 10:59:08;;;;;;;5.53;0.80;;;28.80;99.90;;;;;;5269462;28;20020;-72
2022/07/16 11:01:41;;;;;;;5.13;0.70;;;29.50;99.90;;;;;;5269171;28;20048;-75
2022/07/16 11:04:13;;;;;;;7.38;0.82;;;29.00;99.90;;;;;;5269360;28;20472;-73
2022/07/16 11:06:50;;;;;;;2.47;0.60;;;29.60;99.90;;;;;;5269236;28;20421;-79
2022/07/16 11:09:33;;;;;;;5.45;0.60;;;29.10;99.90;;;;;;5269400;28;20016;-78
2022/07/16 11:12:20;;;;;;;2.70;0.80;;;29.10;99.90;;;;;;5267912;28;20035;-72
2022/07/16 11:14:53;;;;;;;3.53;0.70;;;28.90;99.90;;;;;;5269127;28;20085;-72
2022/07/16 11:17:29;;;;;;;3.95;0.65;;;29.20;99.90;;;;;;5269142;28;20024;-73
2022/07/16 11:20:05;;;;;;;4.20;0.85;;;29.20;99.90;;;;;;5269052;28;20038;-72
2022/07/16 11:22:36;;;;;;;4.32;0.65;;;29.20;99.90;;;;;;5269010;28;20020;-72
2022/07/16 11:25:07;;;;;;;2.60;0.77;;;29.10;99.90;;;;;;5268912;28;20031;-74
2022/07/16 11:27:39;;;;;;;6.78;0.70;;;29.80;99.90;;;;;;5268658;28;20507;-72
2022/07/16 11:30:11;;;;;;;3.35;0.77;;;29.60;99.90;;;;;;5267376;28;20028;-72
2022/07/16 11:32:47;;;;;;;2.75;0.80;;;29.30;99.90;;;;;;5269034;28;20020;-72
2022/07/16 11:35:17;;;;;;;6.10;0.63;;;29.40;99.90;;;;;;5268765;28;20488;-71
2022/07/16 11:37:58;;;;;;;4.72;0.95;;;29.30;99.90;;;;;;5268612;28;20020;-72
2022/07/16 11:40:35;;;;;;;3.63;0.82;;;29.20;99.90;;;;;;5268541;28;20067;-72
2022/07/16 11:43:06;;;;;;;2.95;0.70;;;28.10;99.90;;;;;;5268584;28;20024;-73
2022/07/16 11:45:42;;;;;;;4.45;0.85;;;28.40;99.90;;;;;;5268397;28;20044;-73
2022/07/16 11:48:15;;;;;;;2.50;0.80;;;29.50;99.90;;;;;;5268449;28;20440;-72
2022/07/16 11:50:47;;;;;;;2.47;0.77;;;30.00;99.90;;;;;;5268431;28;20036;-72
2022/07/16 11:53:29;;;;;;;2.35;0.73;;;30.00;99.90;;;;;;5268256;28;20376;-72
2022/07/16 11:56:00;;;;;;;2.15;0.70;;;30.00;99.90;;;;;;5268271;28;20032;-73
2022/07/16 11:58:31;;;;;;;3.40;0.80;;;30.10;99.90;;;;;;5268161;28;20725;-74
2022/07/16 12:01:02;;;;;;;7.22;0.90;;;29.20;99.90;;;;;;5268090;28;20583;-72
2022/07/16 12:03:33;;;;;;;7.05;1.10;;;29.20;99.90;;;;;;5268210;28;20031;-73
2022/07/16 12:06:07;;;;;;;3.30;0.90;;;29.60;99.90;;;;;;5268393;28;20119;-72
2022/07/16 12:08:51;;;;;;;10.98;1.08;;;29.50;99.90;;;;;;5268096;28;20387;-72
2022/07/16 12:11:32;;;;;;;8.00;1.15;;;29.70;99.90;;;;;;5268353;28;20031;-72
2022/07/16 12:14:03;;;;;;;4.97;1.17;;;29.50;99.90;;;;;;5268144;28;20617;-72
2022/07/16 12:16:34;;;;;;;2.15;0.85;;;29.40;99.90;;;;;;5267941;28;20111;-72
2022/07/16 12:19:12;;;;;;;4.72;1.10;;;29.50;99.90;;;;;;5266698;28;20055;-72
2022/07/16 12:21:48;;;;;;;2.67;0.90;;;29.60;99.90;;;;;;5266817;28;20387;-73
2022/07/16 12:24:28;;;;;;;10.85;0.85;;;29.70;99.90;;;;;;5268121;28;20028;-72
2022/07/16 12:26:59;;;;;;;6.63;0.95;;;29.50;99.90;;;;;;5268004;28;20024;-73
2022/07/16 12:29:41;;;;;;;3.58;1.02;;;28.80;99.90;;;;;;5267932;28;20031;-72
2022/07/16 12:32:12;;;;;;;3.42;0.80;;;29.50;99.90;;;;;;5267822;28;20047;-72
2022/07/16 12:34:44;;;;;;;1.50;1.13;;;29.30;99.90;;;;;;5267994;28;20361;-73
2022/07/16 12:37:15;;;;;;;4.28;0.90;;;29.90;99.90;;;;;;5267856;28;20039;-72
2022/07/16 12:39:47;;;;;;;4.07;1.10;;;29.10;99.90;;;;;;5267740;28;20095;-74
2022/07/16 12:42:18;;;;;;;5.45;1.05;;;30.20;99.90;;;;;;5267776;28;20020;-73
2022/07/16 12:44:48;;;;;;;2.78;1.10;;;29.60;99.90;;;;;;5267888;28;20023;-72
2022/07/16 12:47:19;;;;;;;6.35;1.20;;;29.20;99.90;;;;;;5267833;28;20027;-72
2022/07/16 12:49:50;;;;;;;3.40;0.80;;;30.10;99.90;;;;;;5267862;28;20074;-72
2022/07/16 12:52:21;;;;;;;2.65;1.00;;;30.00;99.90;;;;;;5267723;28;20360;-72
2022/07/16 13:00:29;;;;;;;;;;;30.00;99.90;;;;;;5267977;28;20113;-73
2022/07/16 13:03:02;;;;;;;1.85;0.70;;;29.00;99.90;;;;;;5267745;28;19912;-73
2022/07/16 13:05:33;;;;;;;4.38;1.13;;;28.70;99.90;;;;;;5267643;28;20066;-79
2022/07/16 13:08:04;;;;;;;4.63;0.98;;;29.70;99.90;;;;;;5267579;28;20031;-73
2022/07/16 13:10:37;;;;;;;3.92;1.00;;;29.10;99.90;;;;;;5267701;28;20028;-73
2022/07/16 13:13:08;;;;;;;3.50;1.13;;;29.40;99.90;;;;;;5270307;28;20085;-75
2022/07/16 13:15:38;;;;;;;6.07;0.90;;;29.40;99.90;;;;;;5271320;28;20028;-73
2022/07/16 13:18:09;;;;;;;3.63;0.80;;;29.20;99.90;;;;;;5271432;28;20429;-73
2022/07/16 13:20:40;;;;;;;3.28;0.73;;;29.10;99.90;;;;;;5271450;28;20462;-72
2022/07/16 13:23:11;;;;;;;5.03;1.15;;;29.50;99.90;;;;;;5271489;28;20134;-73
2022/07/16 13:25:42;;;;;;;3.15;0.70;;;29.60;99.90;;;;;;5271218;28;20012;-72
2022/07/16 13:28:12;;;;;;;5.75;0.80;;;29.70;99.90;;;;;;5270004;28;20050;-72